Time;durP1;ratioP1;P1;durP2;ratioP2;P2;SDS_P1;SDS_P2;PMS_P1;PMS_P2;Temp;Humidity;BMP_temperature;BMP_pressure;BME280_temperature;BME280_humidity;BME280_pressure;Samples;Min_cycle;Max_cycle;Signal;HPM_P1;HPM_P2
2023/09/15 00:00:35;;;;;;;8.10;6.97;;;;;;;16.87;100.00;96758.34;5111079;28;20205;-57
2023/09/15 00:03:01;;;;;;;8.57;7.60;;;;;;;16.82;100.00;96750.06;5111667;28;20257;-59
2023/09/15 00:05:33;;;;;;;8.18;7.40;;;;;;;16.81;100.00;96748.41;5111531;28;20262;-59
2023/09/15 00:08:04;;;;;;;8.10;7.40;;;;;;;16.80;100.00;96749.41;5111588;28;20205;-59
2023/09/15 00:10:30;;;;;;;8.50;7.47;;;;;;;16.78;100.00;96751.44;5110613;28;20204;-59
2023/09/15 00:12:58;;;;;;;8.13;7.43;;;;;;;16.73;100.00;96759.13;5111623;28;20193;-58
2023/09/15 00:15:26;;;;;;;9.90;7.60;;;;;;;16.74;100.00;96752.78;5110724;28;20277;-59
2023/09/15 00:17:54;;;;;;;7.53;6.82;;;;;;;16.69;100.00;96749.81;5111044;28;20633;-57
2023/09/15 00:20:20;;;;;;;12.43;7.97;;;;;;;16.67;100.00;96745.66;5116874;28;20202;-59
2023/09/15 00:22:49;;;;;;;7.40;6.70;;;;;;;16.69;100.00;96749.81;5118152;28;20605;-59
2023/09/15 00:25:18;;;;;;;7.35;6.75;;;;;;;16.72;100.00;96751.31;5115806;28;20201;-59
2023/09/15 00:27:45;;;;;;;8.23;7.53;;;;;;;16.73;100.00;96745.78;5115464;28;20293;-62
2023/09/15 00:30:13;;;;;;;10.02;7.72;;;;;;;16.76;100.00;96749.91;5112525;28;20288;-59
2023/09/15 00:32:43;;;;;;;7.55;6.60;;;;;;;16.75;100.00;96743.78;5112430;28;20212;-59
2023/09/15 00:35:09;;;;;;;7.93;7.13;;;;;;;16.78;100.00;96747.91;5112508;28;20266;-58
2023/09/15 00:37:36;;;;;;;9.20;6.65;;;;;;;16.76;100.00;96752.59;5111148;28;20197;-58
2023/09/15 00:40:05;;;;;;;7.78;7.18;;;;;;;16.76;100.00;96748.09;5111277;28;20197;-59
2023/09/15 00:42:32;;;;;;;8.20;7.07;;;;;;;16.75;100.00;96749.13;5111425;28;20224;-58
2023/09/15 00:45:04;;;;;;;7.72;6.95;;;;;;;16.77;100.00;96747.09;5113320;28;20213;-60
2023/09/15 00:47:31;;;;;;;7.68;7.00;;;;;;;16.84;100.00;96753.38;5113315;28;20211;-58
2023/09/15 00:49:59;;;;;;;7.78;6.70;;;;;;;16.77;100.00;96752.44;5111866;28;20213;-58
2023/09/15 00:52:25;;;;;;;6.80;6.07;;;;;;;16.74;100.00;96752.78;5111217;28;20193;-59
2023/09/15 00:54:53;;;;;;;9.43;7.15;;;;;;;16.74;100.00;96752.78;5114624;28;20209;-58
2023/09/15 00:57:20;;;;;;;7.28;6.63;;;;;;;16.71;100.00;96752.31;5114869;28;20220;-58
2023/09/15 00:59:46;;;;;;;6.80;6.20;;;;;;;16.66;100.00;96752.00;5115529;28;20201;-59
2023/09/15 01:02:13;;;;;;;7.25;6.63;;;;;;;16.65;100.00;96751.16;5115397;28;20193;-58
2023/09/15 01:04:41;;;;;;;7.97;6.55;;;;;;;16.67;100.00;96762.53;5115432;28;20216;-58
2023/09/15 01:07:11;;;;;;;7.38;6.60;;;;;;;16.66;100.00;96750.16;5114141;28;20209;-60
2023/09/15 01:09:39;;;;;;;7.30;6.60;;;;;;;16.65;100.00;96751.16;5114456;28;20670;-59
2023/09/15 01:12:07;;;;;;;8.95;6.60;;;;;;;16.63;100.00;96739.84;5113907;28;20254;-58
2023/09/15 01:14:34;;;;;;;6.78;6.13;;;;;;;16.62;100.00;96732.84;5114876;28;20536;-59
2023/09/15 01:17:09;;;;;;;7.25;6.55;;;;;;;16.62;100.00;96734.66;5114065;28;20296;-60
2023/09/15 01:19:54;;;;;;;8.13;6.53;;;;;;;16.62;100.00;96737.34;5114504;28;20249;-57
2023/09/15 01:22:37;;;;;;;7.10;6.40;;;;;;;16.57;100.00;96731.72;5114162;28;20236;-58
2023/09/15 01:25:41;;;;;;;7.65;6.95;;;;;;;16.57;100.00;96729.88;5114334;28;20201;-58
2023/09/15 01:28:19;;;;;;;7.38;6.68;;;;;;;16.62;100.00;96732.00;5097750;28;20228;-59
2023/09/15 01:30:49;;;;;;;11.20;6.53;;;;;;;16.60;100.00;96729.53;5114323;28;20262;-59
2023/09/15 01:33:16;;;;;;;7.60;6.82;;;;;;;16.63;100.00;96737.19;5113765;28;20197;-58
2023/09/15 01:35:42;;;;;;;7.57;6.82;;;;;;;16.65;100.00;96732.47;5114391;28;20288;-58
2023/09/15 01:38:09;;;;;;;7.43;6.43;;;;;;;16.64;100.00;96730.00;5114209;28;20200;-59
2023/09/15 01:40:37;;;;;;;7.50;6.50;;;;;;;16.71;100.00;96736.28;5113344;28;20667;-58
2023/09/15 01:43:04;;;;;;;7.55;6.82;;;;;;;16.69;100.00;96733.78;5113947;28;20652;-58
2023/09/15 01:45:33;;;;;;;8.30;6.40;;;;;;;16.66;100.00;96736.81;5113957;28;20333;-59
2023/09/15 01:48:02;;;;;;;6.82;6.13;;;;;;;16.66;100.00;96734.16;5113670;28;20316;-58
2023/09/15 01:50:30;;;;;;;8.95;6.88;;;;;;;16.72;100.00;96736.09;5114000;28;20200;-59
2023/09/15 01:52:57;;;;;;;6.88;6.28;;;;;;;16.74;100.00;96736.75;5113398;28;20739;-59
2023/09/15 01:55:25;;;;;;;8.02;6.70;;;;;;;16.76;100.00;96734.72;5112588;28;20633;-58
2023/09/15 01:57:52;;;;;;;6.88;6.38;;;;;;;16.78;100.00;96732.72;5113238;28;20200;-59
2023/09/15 02:00:18;;;;;;;8.27;6.63;;;;;;;16.80;100.00;96736.03;5113408;28;20201;-59
2023/09/15 02:02:44;;;;;;;8.35;7.03;;;;;;;16.82;100.00;96734.03;5113559;28;20226;-58
2023/09/15 02:05:18;;;;;;;8.05;6.85;;;;;;;16.85;100.00;96727.50;5113131;28;20625;-57
2023/09/15 02:07:44;;;;;;;8.23;6.45;;;;;;;16.86;100.00;96727.31;5114308;28;20189;-58
2023/09/15 02:10:11;;;;;;;7.15;6.45;;;;;;;16.87;100.00;96730.81;5113252;28;20210;-59
2023/09/15 02:12:37;;;;;;;6.15;5.57;;;;;;;16.88;100.00;96738.66;5113212;28;20213;-59
2023/09/15 02:15:05;;;;;;;8.65;6.35;;;;;;;16.87;100.00;96731.63;5112907;28;20212;-58
2023/09/15 02:17:31;;;;;;;7.22;6.65;;;;;;;16.93;100.00;96735.44;5113645;28;20193;-59
2023/09/15 02:19:57;;;;;;;7.50;6.10;;;;;;;16.98;100.00;96735.72;5113167;28;20267;-59
2023/09/15 02:22:25;;;;;;;7.53;6.38;;;;;;;16.98;100.00;96748.25;5112861;28;20205;-59
2023/09/15 02:24:52;;;;;;;7.65;6.80;;;;;;;16.97;100.00;96742.06;5113188;28;21355;-59
2023/09/15 02:27:18;;;;;;;7.00;6.30;;;;;;;16.98;100.00;96730.38;5113805;28;20201;-57
2023/09/15 02:29:45;;;;;;;6.63;5.97;;;;;;;16.99;100.00;96734.72;5113883;28;20240;-59
2023/09/15 02:32:11;;;;;;;7.30;6.60;;;;;;;17.03;100.00;96727.19;5123315;28;20201;-59
2023/09/15 02:34:39;;;;;;;7.53;6.68;;;;;;;17.04;100.00;96728.84;5122568;28;20212;-59
2023/09/15 02:37:06;;;;;;;7.38;6.68;;;;;;;17.05;100.00;96731.31;5121427;28;20242;-58
2023/09/15 02:39:35;;;;;;;7.50;6.80;;;;;;;17.08;100.00;96722.09;5116042;28;20217;-60
2023/09/15 02:42:03;;;;;;;7.70;6.88;;;;;;;17.05;100.00;96719.78;5115783;28;20255;-57
2023/09/15 02:44:30;;;;;;;7.75;6.97;;;;;;;17.07;100.00;96721.28;5115023;28;20284;-59
2023/09/15 02:46:58;;;;;;;7.20;6.60;;;;;;;17.08;100.00;96722.09;5114224;28;20193;-59
2023/09/15 02:49:25;;;;;;;7.15;5.88;;;;;;;17.07;100.00;96717.78;5114025;28;20217;-59
2023/09/15 02:51:51;;;;;;;6.55;5.95;;;;;;;17.11;100.00;96724.44;5114145;28;20208;-59
2023/09/15 02:54:18;;;;;;;7.40;6.72;;;;;;;17.15;100.00;96715.03;5113517;28;20225;-59
2023/09/15 02:56:46;;;;;;;6.60;6.00;;;;;;;17.19;100.00;96719.81;5113456;28;20209;-60
2023/09/15 02:59:15;;;;;;;7.63;6.93;;;;;;;17.13;100.00;96719.72;5113971;28;20193;-60
2023/09/15 03:01:43;;;;;;;6.45;5.95;;;;;;;17.13;100.00;96730.41;5112571;28;20846;-58
2023/09/15 03:04:10;;;;;;;6.18;5.68;;;;;;;17.11;100.00;96713.75;5113352;28;20231;-58
2023/09/15 03:06:36;;;;;;;7.35;6.72;;;;;;;17.11;100.00;96717.22;5113136;28;20205;-60
2023/09/15 03:09:04;;;;;;;7.28;6.68;;;;;;;17.17;100.00;96721.03;5112448;28;20227;-57
2023/09/15 03:11:30;;;;;;;7.18;6.47;;;;;;;17.22;100.00;96714.13;5112464;28;20212;-59
2023/09/15 03:13:58;;;;;;;7.75;7.05;;;;;;;17.20;100.00;96718.00;5112993;28;20582;-60
2023/09/15 03:16:25;;;;;;;8.25;7.10;;;;;;;17.12;100.00;96710.88;5111778;28;20209;-58
2023/09/15 03:18:52;;;;;;;7.90;7.07;;;;;;;17.10;100.00;96720.09;5112664;28;20244;-60
2023/09/15 03:21:19;;;;;;;7.32;6.68;;;;;;;17.12;100.00;96712.72;5112155;28;20548;-58
2023/09/15 03:23:47;;;;;;;7.82;7.13;;;;;;;17.09;100.00;96718.44;5112046;28;20301;-59
2023/09/15 03:26:14;;;;;;;8.35;7.10;;;;;;;17.09;100.00;96705.91;5112896;28;20526;-58
2023/09/15 03:28:40;;;;;;;7.93;7.13;;;;;;;17.10;100.00;96709.41;5114216;28;20232;-59
2023/09/15 03:31:08;;;;;;;7.78;7.13;;;;;;;17.08;100.00;96714.09;5111965;28;20201;-58
2023/09/15 03:33:35;;;;;;;8.13;7.30;;;;;;;17.10;100.00;96715.59;5113025;28;20216;-58
2023/09/15 03:36:02;;;;;;;8.93;8.02;;;;;;;17.09;100.00;96702.41;5113706;28;20276;-58
2023/09/15 03:38:28;;;;;;;8.70;7.88;;;;;;;17.10;100.00;96714.75;5112883;28;20204;-58
2023/09/15 03:40:55;;;;;;;8.40;7.60;;;;;;;17.13;100.00;96709.03;5111893;28;20216;-59
2023/09/15 03:43:21;;;;;;;6.97;6.38;;;;;;;17.10;100.00;96710.25;5111929;28;20204;-58
2023/09/15 03:45:49;;;;;;;8.13;7.35;;;;;;;17.12;100.00;96702.03;5110580;28;20629;-58
2023/09/15 03:48:16;;;;;;;8.05;7.28;;;;;;;17.08;100.00;96700.72;5111936;28;20506;-59
2023/09/15 03:50:43;;;;;;;7.78;7.00;;;;;;;17.04;100.00;96705.59;5111505;28;20211;-59
2023/09/15 03:53:09;;;;;;;7.47;6.88;;;;;;;17.04;100.00;96702.94;5110931;28;20614;-59
2023/09/15 03:55:36;;;;;;;7.88;7.22;;;;;;;17.06;100.00;96708.09;5110900;28;20193;-59
2023/09/15 03:58:03;;;;;;;8.63;7.78;;;;;;;17.03;100.00;96700.47;5111586;28;20224;-59
2023/09/15 04:00:31;;;;;;;7.95;7.15;;;;;;;17.03;100.00;96703.13;5111127;28;20893;-59
2023/09/15 04:02:57;;;;;;;9.55;8.48;;;;;;;17.00;100.00;96708.84;5111029;28;20208;-59
2023/09/15 04:05:25;;;;;;;8.73;7.85;;;;;;;17.04;100.00;96707.47;5111002;28;20193;-59
2023/09/15 04:07:52;;;;;;;9.50;8.60;;;;;;;17.01;100.00;96713.16;5110975;28;21438;-59
2023/09/15 04:10:19;;;;;;;8.80;7.60;;;;;;;16.98;100.00;96716.19;5110821;28;20525;-58
2023/09/15 04:12:45;;;;;;;9.18;8.40;;;;;;;16.93;100.00;96712.22;5111126;28;20653;-59
2023/09/15 04:15:12;;;;;;;10.52;7.93;;;;;;;16.91;100.00;96716.91;5111358;28;20647;-59
2023/09/15 04:17:39;;;;;;;9.63;7.95;;;;;;;16.90;100.00;96712.56;5111308;28;20629;-59
2023/09/15 04:20:09;;;;;;;8.73;7.82;;;;;;;16.89;100.00;96718.94;5110916;28;20229;-59
2023/09/15 04:22:37;;;;;;;8.52;7.82;;;;;;;16.87;100.00;96718.28;5111444;28;20205;-59
2023/09/15 04:25:05;;;;;;;9.13;7.75;;;;;;;16.87;100.00;96720.97;5110063;28;20292;-60
2023/09/15 04:27:32;;;;;;;9.52;8.60;;;;;;;16.91;100.00;96724.94;5110786;28;20539;-60
2023/09/15 04:29:58;;;;;;;8.60;7.75;;;;;;;16.91;100.00;96724.94;5110696;28;20275;-59
2023/09/15 04:32:26;;;;;;;8.93;8.10;;;;;;;16.89;100.00;96724.28;5110958;28;20204;-57
2023/09/15 04:34:53;;;;;;;8.45;7.65;;;;;;;16.89;100.00;96726.13;5110058;28;20216;-59
2023/09/15 04:37:19;;;;;;;8.85;7.95;;;;;;;16.89;100.00;96726.97;5110870;28;20204;-59
2023/09/15 04:39:49;;;;;;;8.30;7.50;;;;;;;16.88;100.00;96727.97;5110659;28;20197;-58
2023/09/15 04:42:16;;;;;;;9.25;7.78;;;;;;;16.87;100.00;96726.31;5113380;28;20246;-58
2023/09/15 04:44:43;;;;;;;9.75;8.70;;;;;;;16.89;100.00;96721.63;5127987;28;20205;-59
2023/09/15 04:47:11;;;;;;;9.32;8.52;;;;;;;16.92;100.00;96725.78;5120931;28;20640;-60
2023/09/15 04:49:38;;;;;;;10.13;9.07;;;;;;;16.93;100.00;96725.56;5117638;28;20854;-58
2023/09/15 04:52:05;;;;;;;9.50;8.57;;;;;;;16.96;100.00;96734.25;5113293;28;20232;-58
2023/09/15 04:54:32;;;;;;;9.55;8.68;;;;;;;16.97;100.00;96731.38;5110317;28;20262;-58
2023/09/15 04:57:00;;;;;;;10.10;9.18;;;;;;;17.00;100.00;96735.56;5111412;28;20216;-58
2023/09/15 04:59:26;;;;;;;9.50;8.55;;;;;;;17.01;100.00;96735.34;5111735;28;20533;-59
2023/09/15 05:01:52;;;;;;;11.02;9.60;;;;;;;17.03;100.00;96740.53;5111501;28;20216;-59
2023/09/15 05:04:19;;;;;;;10.05;8.55;;;;;;;17.00;100.00;96735.56;5112914;28;20193;-58
2023/09/15 05:06:45;;;;;;;9.73;8.70;;;;;;;16.97;100.00;96735.91;5112776;28;20250;-59
2023/09/15 05:09:14;;;;;;;9.60;8.60;;;;;;;16.97;100.00;96741.25;5111730;28;20228;-58
2023/09/15 05:11:41;;;;;;;10.73;8.43;;;;;;;16.95;100.00;96732.59;5111430;28;20297;-60
2023/09/15 05:14:09;;;;;;;10.05;9.10;;;;;;;16.95;100.00;96743.28;5111387;28;20197;-59
2023/09/15 05:16:35;;;;;;;10.15;9.15;;;;;;;16.96;100.00;96742.25;5110116;28;20218;-58
2023/09/15 05:19:02;;;;;;;9.80;8.88;;;;;;;16.98;100.00;96746.41;5110724;28;20202;-59
2023/09/15 05:21:28;;;;;;;10.63;9.60;;;;;;;16.98;100.00;96749.09;5110383;28;20201;-59
2023/09/15 05:23:55;;;;;;;10.82;9.73;;;;;;;16.99;100.00;96750.75;5110732;28;20210;-58
2023/09/15 05:26:21;;;;;;;10.75;9.40;;;;;;;17.03;100.00;96748.56;5110604;28;20201;-59
2023/09/15 05:28:47;;;;;;;11.23;9.48;;;;;;;17.03;100.00;96753.91;5109740;28;20700;-58
2023/09/15 05:31:17;;;;;;;10.65;9.68;;;;;;;17.04;100.00;96744.88;5110265;28;20219;-59
2023/09/15 05:33:44;;;;;;;10.60;9.50;;;;;;;17.04;100.00;96747.56;5110643;28;20216;-58
2023/09/15 05:36:10;;;;;;;9.30;8.45;;;;;;;17.12;100.00;96753.63;5110576;28;20224;-59
2023/09/15 05:38:37;;;;;;;10.20;9.30;;;;;;;17.08;100.00;96749.66;5110895;28;20550;-59
2023/09/15 05:41:04;;;;;;;14.70;12.10;;;;;;;17.13;100.00;96749.13;5113513;28;20198;-64
2023/09/15 05:43:32;;;;;;;11.65;10.48;;;;;;;17.23;100.00;96758.53;5114382;28;20274;-59
2023/09/15 05:45:59;;;;;;;10.38;9.27;;;;;;;17.30;100.00;96758.66;5113922;28;20209;-58
2023/09/15 05:48:27;;;;;;;9.80;9.00;;;;;;;17.43;100.00;96766.84;5113840;28;20282;-59
2023/09/15 05:50:54;;;;;;;11.02;9.57;;;;;;;17.38;100.00;96761.25;5113320;28;20232;-57
2023/09/15 05:53:20;;;;;;;10.27;9.27;;;;;;;17.42;100.00;96762.53;5113599;28;20229;-57
2023/09/15 05:55:47;;;;;;;10.77;9.35;;;;;;;17.42;100.00;96768.72;5112678;28;20292;-57
2023/09/15 05:58:13;;;;;;;11.15;9.77;;;;;;;17.40;100.00;96768.06;5113849;28;20553;-58
2023/09/15 06:00:41;;;;;;;11.30;10.30;;;;;;;17.42;100.00;96763.38;5113355;28;20201;-59
2023/09/15 06:03:08;;;;;;;11.50;9.65;;;;;;;17.46;100.00;96765.69;5113689;28;20209;-58
2023/09/15 06:05:38;;;;;;;13.75;10.50;;;;;;;17.43;100.00;96758.84;5112922;28;20209;-57
2023/09/15 06:08:06;;;;;;;10.77;9.68;;;;;;;17.45;100.00;96762.19;5113952;28;20208;-59
2023/09/15 06:10:32;;;;;;;10.63;9.63;;;;;;;17.46;100.00;96773.72;5113415;28;20229;-58
2023/09/15 06:12:59;;;;;;;11.73;9.68;;;;;;;17.42;100.00;96770.56;5113334;28;20205;-58
2023/09/15 06:15:26;;;;;;;10.70;9.80;;;;;;;17.43;100.00;96770.38;5113250;28;20205;-58
2023/09/15 06:17:55;;;;;;;12.48;11.27;;;;;;;17.43;100.00;96777.56;5113969;28;20201;-57
2023/09/15 06:20:21;;;;;;;17.73;16.02;;;;;;;17.45;100.00;96772.88;5113675;28;20290;-57
2023/09/15 06:22:49;;;;;;;11.65;10.55;;;;;;;17.47;100.00;96768.16;5113285;28;20209;-57
2023/09/15 06:25:16;;;;;;;10.73;9.73;;;;;;;17.50;100.00;96775.81;5112157;28;20207;-56
2023/09/15 06:27:42;;;;;;;10.60;9.57;;;;;;;17.48;100.00;96775.19;5112618;28;20725;-56
2023/09/15 06:30:09;;;;;;;10.60;9.60;;;;;;;17.49;100.00;96779.53;5112335;28;20236;-57
2023/09/15 06:32:36;;;;;;;11.52;10.40;;;;;;;17.47;100.00;96775.34;5112376;28;20232;-56
2023/09/15 06:35:04;;;;;;;10.43;9.43;;;;;;;17.46;100.00;96779.06;5112726;28;20643;-56
2023/09/15 06:37:30;;;;;;;11.05;9.95;;;;;;;17.42;100.00;96776.75;5112564;28;20204;-57
2023/09/15 06:39:58;;;;;;;11.32;10.15;;;;;;;17.51;100.00;96777.47;5112778;28;20318;-56
2023/09/15 06:42:24;;;;;;;11.35;10.10;;;;;;;17.46;100.00;96773.72;5112660;28;20205;-56
2023/09/15 06:44:51;;;;;;;10.32;9.40;;;;;;;17.50;100.00;96778.47;5112256;28;20205;-55
2023/09/15 06:47:17;;;;;;;11.27;10.18;;;;;;;17.51;100.00;96780.16;5113453;28;20197;-55
2023/09/15 06:49:44;;;;;;;11.38;10.35;;;;;;;17.51;100.00;96779.31;5113580;28;20225;-57
2023/09/15 06:52:10;;;;;;;10.98;9.88;;;;;;;17.52;100.00;96768.44;5112427;28;20220;-57
2023/09/15 06:54:37;;;;;;;10.95;9.85;;;;;;;17.63;100.00;96781.41;5112646;28;20625;-58
2023/09/15 06:57:05;;;;;;;10.27;9.07;;;;;;;17.65;100.00;96776.69;5119145;28;20228;-57
2023/09/15 06:59:33;;;;;;;11.20;9.85;;;;;;;17.71;100.00;96781.31;5131123;28;20201;-57
2023/09/15 07:02:02;;;;;;;11.18;10.10;;;;;;;17.73;100.00;96781.13;5118732;28;20197;-57
2023/09/15 07:04:29;;;;;;;10.68;9.55;;;;;;;17.80;100.00;96788.25;5114575;28;20592;-56
2023/09/15 07:06:55;;;;;;;11.65;10.55;;;;;;;17.85;100.00;96782.34;5112933;28;20208;-56
2023/09/15 07:09:22;;;;;;;10.95;9.85;;;;;;;17.94;100.00;96778.53;5112572;28;20228;-57
2023/09/15 07:11:49;;;;;;;10.88;9.88;;;;;;;18.15;100.00;96775.09;5112209;28;20589;-57
2023/09/15 07:14:17;;;;;;;11.82;10.73;;;;;;;18.22;100.00;96787.56;5112241;28;20210;-56
2023/09/15 07:16:44;;;;;;;11.70;10.38;;;;;;;18.25;100.00;96786.34;5111867;28;20197;-56
2023/09/15 07:19:10;;;;;;;10.60;9.55;;;;;;;18.23;100.00;96788.41;5112895;28;20266;-57
2023/09/15 07:21:40;;;;;;;14.10;10.52;;;;;;;18.29;100.00;96780.44;5112603;28;20208;-57
2023/09/15 07:24:07;;;;;;;11.23;10.13;;;;;;;18.30;100.00;96789.31;5112082;28;20204;-57
2023/09/15 07:26:34;;;;;;;10.55;9.45;;;;;;;18.34;100.00;96785.25;5112060;28;20212;-57
2023/09/15 07:29:00;;;;;;;11.13;10.00;;;;;;;18.40;100.00;96785.31;5112024;28;20244;-57
2023/09/15 07:31:30;;;;;;;10.80;9.80;;;;;;;18.45;100.00;96786.59;5111893;28;20530;-57
2023/09/15 07:33:56;;;;;;;10.77;9.75;;;;;;;18.49;100.00;96780.69;5112590;28;20209;-58
2023/09/15 07:36:23;;;;;;;10.30;9.40;;;;;;;18.62;100.00;96785.38;5112592;28;20271;-56
2023/09/15 07:38:49;;;;;;;11.23;10.23;;;;;;;18.56;100.00;96788.81;5111332;28;20656;-56
2023/09/15 07:41:16;;;;;;;11.07;9.90;;;;;;;18.58;100.00;96782.25;5111630;28;20648;-57
2023/09/15 07:43:43;;;;;;;11.18;10.07;;;;;;;18.66;100.00;96784.81;5112024;28;20213;-56
2023/09/15 07:46:10;;;;;;;11.38;10.20;;;;;;;18.57;100.00;96780.59;5111522;28;20215;-55
2023/09/15 07:48:37;;;;;;;10.85;9.85;;;;;;;18.59;100.00;96788.44;5112325;28;20209;-56
2023/09/15 07:51:05;;;;;;;11.82;10.52;;;;;;;18.60;100.00;96784.75;5110516;28;20225;-56
2023/09/15 07:53:32;;;;;;;10.65;9.68;;;;;;;18.69;100.00;96781.75;5111750;28;20204;-58
2023/09/15 07:55:58;;;;;;;11.70;10.50;;;;;;;18.76;100.00;96782.66;5111017;28;20216;-56
2023/09/15 07:58:25;;;;;;;12.00;10.90;;;;;;;18.71;100.00;96784.22;5112037;28;20208;-56
2023/09/15 08:00:53;;;;;;;11.50;9.93;;;;;;;18.75;100.00;96781.00;5110971;28;20633;-56
2023/09/15 08:03:19;;;;;;;11.90;10.73;;;;;;;18.75;100.00;96785.50;5111703;28;20209;-56
2023/09/15 08:05:48;;;;;;;12.35;10.32;;;;;;;18.88;100.00;96783.00;5111485;28;20194;-55
2023/09/15 08:08:14;;;;;;;11.30;10.27;;;;;;;18.97;100.00;96787.19;5111063;28;20300;-55
2023/09/15 08:10:41;;;;;;;11.18;10.23;;;;;;;18.96;100.00;96779.31;5110754;28;20680;-56
2023/09/15 08:13:07;;;;;;;12.20;11.10;;;;;;;19.06;100.00;96788.69;5111185;28;20212;-55
2023/09/15 08:15:34;;;;;;;12.38;10.32;;;;;;;19.07;100.00;96789.53;5112420;28;20204;-56
2023/09/15 08:18:01;;;;;;;10.88;9.82;;;;;;;19.16;100.00;96788.41;5111225;28;20205;-56
2023/09/15 08:20:28;;;;;;;11.85;10.68;;;;;;;19.34;100.00;96788.75;5111688;28;20328;-56
2023/09/15 08:22:58;;;;;;;12.80;11.48;;;;;;;19.19;100.00;96790.69;5110829;28;20205;-57
2023/09/15 08:25:25;;;;;;;11.60;10.50;;;;;;;19.27;100.00;96787.88;5112030;28;20193;-56
2023/09/15 08:27:52;;;;;;;12.68;11.48;;;;;;;19.31;100.00;96779.22;5112289;28;20201;-55
2023/09/15 08:30:22;;;;;;;11.45;10.45;;;;;;;19.42;100.00;96779.75;5111879;28;20217;-54
2023/09/15 08:32:48;;;;;;;12.43;11.35;;;;;;;19.54;100.00;96773.69;5110714;28;20647;-55
2023/09/15 08:35:15;;;;;;;13.07;11.32;;;;;;;19.66;100.00;96782.81;5110946;28;20205;-55
2023/09/15 08:37:41;;;;;;;12.00;10.80;;;;;;;19.68;100.00;96780.78;5111466;28;20545;-56
2023/09/15 08:40:10;;;;;;;12.63;11.30;;;;;;;19.53;100.00;96780.06;5110312;28;20209;-55
2023/09/15 08:42:36;;;;;;;12.73;11.52;;;;;;;19.57;100.00;96777.81;5110580;28;20220;-56
2023/09/15 08:45:05;;;;;;;12.82;11.63;;;;;;;19.61;100.00;96779.91;5111320;28;20201;-55
2023/09/15 08:47:34;;;;;;;12.30;11.20;;;;;;;19.73;100.00;96783.69;5110483;28;20239;-55
2023/09/15 08:50:03;;;;;;;12.48;11.27;;;;;;;19.91;100.00;96785.06;5114709;28;20265;-56
2023/09/15 08:52:30;;;;;;;12.77;11.57;;;;;;;20.03;100.00;96786.16;5114685;28;20219;-57
2023/09/15 08:54:57;;;;;;;13.48;11.23;;;;;;;20.26;100.00;96778.63;5112996;28;20216;-56
2023/09/15 08:57:25;;;;;;;12.57;11.38;;;;;;;20.53;100.00;96771.53;5111858;28;20229;-56
2023/09/15 08:59:53;;;;;;;11.80;10.73;;;;;;;20.64;100.00;96784.38;5110310;28;20564;-56
2023/09/15 09:02:20;;;;;;;12.45;10.93;;;;;;;20.73;100.00;96775.09;5110435;28;20235;-55
2023/09/15 09:04:46;;;;;;;12.05;10.75;;;;;;;20.68;100.00;96778.41;5109443;28;20632;-55
2023/09/15 09:07:14;;;;;;;13.13;11.70;;;;;;;20.43;100.00;96773.78;5108457;28;21409;-54
2023/09/15 09:09:41;;;;;;;13.63;12.32;;;;;;;20.31;100.00;96781.56;5109077;28;20563;-55
2023/09/15 09:12:08;;;;;;;13.18;11.98;;;;;;;20.26;100.00;96778.63;5107940;28;20281;-56
2023/09/15 09:14:36;;;;;;;13.23;11.88;;;;;;;20.20;100.00;96782.09;5111732;28;20212;-56
2023/09/15 09:17:03;;;;;;;12.15;10.95;;;;;;;20.21;100.00;96775.72;5114580;28;20305;-54
2023/09/15 09:19:36;;;;;;;11.70;10.60;;;;;;;20.27;100.00;96770.41;5114583;28;20216;-57
2023/09/15 09:22:02;;;;;;;11.75;10.73;;;;;;;20.33;100.00;96768.78;5115103;28;20197;-55
2023/09/15 09:24:29;;;;;;;13.02;11.60;;;;;;;20.35;100.00;96766.72;5113621;28;20212;-55
2023/09/15 09:26:55;;;;;;;12.68;11.45;;;;;;;20.38;100.00;96769.00;5113544;28;20648;-54
2023/09/15 09:29:25;;;;;;;12.05;11.05;;;;;;;20.56;100.00;96769.25;5114169;28;20269;-55
2023/09/15 09:31:53;;;;;;;11.75;10.65;;;;;;;20.65;100.00;96765.34;5114303;28;20250;-55
2023/09/15 09:34:19;;;;;;;12.40;11.18;;;;;;;20.57;100.00;96770.94;5114078;28;20658;-56
2023/09/15 09:36:48;;;;;;;13.30;11.50;;;;;;;20.59;100.00;96768.03;5113435;28;20193;-55
2023/09/15 09:39:14;;;;;;;14.45;10.98;;;;;;;20.62;100.00;96759.56;5113649;28;20518;-54
2023/09/15 09:41:42;;;;;;;11.93;10.82;;;;;;;20.55;100.00;96762.22;5114256;28;20217;-56
2023/09/15 09:44:08;;;;;;;12.23;11.02;;;;;;;20.61;100.00;96761.44;5114227;28;20204;-54
2023/09/15 09:46:37;;;;;;;12.52;11.27;;;;;;;20.54;100.00;96754.38;5114556;28;20186;-55
2023/09/15 09:49:04;;;;;;;10.98;10.05;;;;;;;20.62;100.00;96763.06;5113970;28;20270;-55
2023/09/15 09:51:32;;;;;;;12.80;10.95;;;;;;;20.84;100.00;96763.75;5113668;28;20540;-55
2023/09/15 09:53:58;;;;;;;12.45;11.25;;;;;;;20.88;100.00;96761.47;5113257;28;20215;-56
2023/09/15 09:56:25;;;;;;;12.35;11.25;;;;;;;20.82;100.00;96761.28;5113817;28;20197;-55
2023/09/15 09:58:51;;;;;;;12.43;11.13;;;;;;;20.85;100.00;96763.56;5113878;28;20200;-55
2023/09/15 10:01:18;;;;;;;14.77;11.88;;;;;;;20.85;100.00;96755.50;5113930;28;20204;-54
2023/09/15 10:03:44;;;;;;;11.75;10.25;;;;;;;20.98;100.00;96751.16;5113911;28;20207;-55
2023/09/15 10:06:13;;;;;;;11.63;10.60;;;;;;;21.03;100.00;96754.88;5113811;28;20200;-57
2023/09/15 10:08:42;;;;;;;12.10;11.00;;;;;;;21.13;100.00;96754.50;5112671;28;20216;-54
2023/09/15 10:11:08;;;;;;;13.32;11.82;;;;;;;21.26;100.00;96749.13;5113314;28;20217;-55
2023/09/15 10:13:36;;;;;;;12.05;10.63;;;;;;;21.49;100.00;96740.63;5112551;28;20212;-56
2023/09/15 10:16:03;;;;;;;14.88;10.10;;;;;;;21.71;100.00;96752.81;5113767;28;20189;-55
2023/09/15 10:18:29;;;;;;;12.10;10.90;;;;;;;21.62;100.00;96741.44;5112694;28;20197;-54
2023/09/15 10:20:56;;;;;;;13.35;12.15;;;;;;;21.52;100.00;96741.03;5113107;28;20194;-55
2023/09/15 10:23:24;;;;;;;13.60;12.23;;;;;;;21.49;100.00;96740.63;5112867;28;20201;-57
2023/09/15 10:25:53;;;;;;;13.30;11.90;;;;;;;21.44;100.00;96746.63;5112745;28;20205;-55
2023/09/15 10:28:20;;;;;;;15.98;14.32;;;;;;;21.43;100.00;96739.63;5113230;28;20233;-56
2023/09/15 10:30:47;;;;;;;13.45;12.15;;;;;;;21.42;100.00;96747.88;5113129;28;20236;-55
2023/09/15 10:33:13;;;;;;;11.68;10.52;;;;;;;21.44;100.00;96735.88;5113006;28;20201;-55
2023/09/15 10:35:41;;;;;;;12.50;11.30;;;;;;;21.62;100.00;96738.75;5113712;28;20209;-56
2023/09/15 10:38:08;;;;;;;12.20;11.07;;;;;;;21.74;100.00;96737.09;5112975;28;20537;-56
2023/09/15 10:40:46;;;;;;;12.10;10.93;;;;;;;21.74;100.00;96742.47;5112466;28;20660;-56
2023/09/15 10:43:15;;;;;;;12.27;10.88;;;;;;;21.78;100.00;96738.31;5112892;28;20254;-55
2023/09/15 10:45:52;;;;;;;13.75;12.43;;;;;;;21.79;100.00;96734.56;5112889;28;20322;-56
2023/09/15 10:48:19;;;;;;;12.80;11.48;;;;;;;21.76;100.00;96726.91;5112765;28;20193;-55
2023/09/15 10:50:46;;;;;;;12.38;11.27;;;;;;;22.19;100.00;96729.09;5112323;28;20248;-56
2023/09/15 10:53:14;;;;;;;12.63;11.52;;;;;;;22.66;100.00;96725.13;5113077;28;20216;-56
2023/09/15 10:55:40;;;;;;;11.20;10.20;;;;;;;23.06;100.00;96714.94;5112751;28;20220;-55
2023/09/15 10:58:10;;;;;;;12.50;11.40;;;;;;;23.38;97.59;96718.41;5112951;28;20209;-55
2023/09/15 11:00:36;;;;;;;10.90;9.90;;;;;;;23.73;94.72;96712.28;5113015;28;20655;-55
2023/09/15 11:03:04;;;;;;;11.77;10.52;;;;;;;24.03;92.63;96716.91;5112762;28;20208;-56
2023/09/15 11:05:30;;;;;;;10.82;9.82;;;;;;;24.21;90.94;96712.38;5112247;28;20209;-55
2023/09/15 11:07:57;;;;;;;12.15;10.98;;;;;;;24.36;92.28;96706.56;5112499;28;20204;-56
2023/09/15 11:10:28;;;;;;;10.50;9.60;;;;;;;24.27;90.25;96699.81;5110956;28;20571;-53
2023/09/15 11:12:59;;;;;;;11.13;10.23;;;;;;;24.56;89.48;96701.72;5112543;28;20258;-55
2023/09/15 11:15:27;;;;;;;11.48;10.57;;;;;;;24.04;87.54;96692.41;5112119;28;20266;-55
2023/09/15 11:17:54;;;;;;;9.75;8.73;;;;;;;24.18;90.93;96690.38;5113046;28;20223;-56
2023/09/15 11:20:21;;;;;;;9.85;8.98;;;;;;;24.07;90.80;96691.09;5113206;28;20209;-56